21-й км

Карта отелей и гостиниц, располагающихся рядом с аэропортом 21-й км :

21-й км Чукотский автономный округ 69° 36' 7.9704" N, 170° 44' 1.9392" E
21-й км Чукотский автономный округ 69° 36' 7.9704" N, 170° 44' 1.9392" E
Код аэродрома ИКАО
HE75
Код аэродрома RU
ХЕ75
Координаты
N69.60221° E170.73387°
Превышение над уровнем моря
172
Основная полоса
02/20
Курс магнитный
023,9/203,9
Длина основной ВПП
51
Ширина основной ВПП
40
Покрытие основной ВПП
Твёрдое
Освещение ВПП
Нет
Тип: 
Вертодром
Класс аэродрома: 
Принадлежность: 
АОН
Статус: 
Действующий
Сайт: 
E-mail аэродрома: 
Страна: 
Россия
Регион: 
Чукотский автономный округ
Город: 
Дополнительная информация: 
Владелец ПП: «Чукотская Горно-Геологическая компания», структурное подразделение компании «Кинросс Дальний Восток».


Найти трансфер

С помощью этой формы Вы можете найти трансфер из аэропорта 21-й км в город, аэропорт или вокзал:

Погода в аэропортах:

Авиационная погода в Ханты-Мансийске

Регион: 
Погода METAR: 
USHH 291030Z 24009G15MPS 7000 -TSRA SCT036CB 12/12 Q1005 R24/290055 TEMPO VRB20MPS 1000 TSRA SQ BKN010CB
Время наблюдения
2022-05-29T10:30:00Z
Температура C
12.0
Точка росы
12.0
Направление ветра
240
Скорость ветра (узлы)
17
Метео видимость
4.35
Облачность
SCT
Нижняя граница облачности (футы)
3600
Явления погоды
-TSRA
Условия полета
MVFR
Аэропорт подробнее: 
SCT – разбросанная отдельная облачность;
TSRA - гроза с дождём;

Авиационная погода в Кадале

Регион: 
Погода METAR: 
UIAA 291030Z 29005MPS 9999 -SHRA SCT040CB 08/03 Q1002 R29/70D NOSIG RMK QFE693/0924
Время наблюдения
2022-05-29T10:30:00Z
Температура C
8.0
Точка росы
3.0
Направление ветра
290
Скорость ветра (узлы)
10
Метео видимость
6.21
Облачность
SCT
Нижняя граница облачности (футы)
4000
Явления погоды
-SHRA
Условия полета
VFR
Аэропорт подробнее: 
SCT – разбросанная отдельная облачность;
-SHRA - слабый ливневой дождь;

Авиационная погода в Йоэнсуу

Регион: 
Погода METAR: 
EFJO 291020Z AUTO 05004KT 020V090 9999 -SHRA FEW033 //////CB 13/11 Q1004
Время наблюдения
2022-05-29T10:20:00Z
Температура C
13.0
Точка росы
11.0
Направление ветра
50
Скорость ветра (узлы)
4
Метео видимость
6.21
Облачность
FEW
Нижняя граница облачности (футы)
3300
Явления погоды
-SHRA
Условия полета
VFR
FEW – незначительная облачность;
-SHRA - слабый ливневой дождь;

Авиационная погода в Каяани

Регион: 
Погода METAR: 
EFKI 291020Z AUTO 02006KT 340V080 9999 -SHRA SCT027 //////CB 14/11 Q1005
Время наблюдения
2022-05-29T10:20:00Z
Температура C
14.0
Точка росы
11.0
Направление ветра
20
Скорость ветра (узлы)
6
Метео видимость
6.21
Облачность
SCT
Нижняя граница облачности (футы)
2700
Явления погоды
-SHRA
Условия полета
VFR
SCT – разбросанная отдельная облачность;
-SHRA - слабый ливневой дождь;